Time;durP1;ratioP1;P1;durP2;ratioP2;P2;SDS_P1;SDS_P2;PMS_P1;PMS_P2;Temp;Humidity;BMP_temperature;BMP_pressure;BME280_temperature;BME280_humidity;BME280_pressure;Samples;Min_cycle;Max_cycle;Signal;HPM_P1;HPM_P2
2021/03/30 00:00:54;;;;;;;8.67;7.97;;;7.30;99.90;;;;;;5026813;28;20205;-77
2021/03/30 00:03:21;;;;;;;8.83;8.03;;;7.20;99.90;;;;;;5029432;28;20210;-77
2021/03/30 00:05:47;;;;;;;9.37;8.40;;;7.20;99.90;;;;;;5010148;28;20204;-77
2021/03/30 00:08:14;;;;;;;8.60;7.90;;;7.10;99.90;;;;;;5022044;28;20217;-77
2021/03/30 00:10:44;;;;;;;9.77;8.47;;;7.00;99.90;;;;;;5015740;28;20201;-78
2021/03/30 00:13:10;;;;;;;8.57;7.77;;;7.00;99.90;;;;;;5025429;28;20188;-77
2021/03/30 00:15:37;;;;;;;8.40;7.70;;;6.90;99.90;;;;;;5012306;28;20204;-77
2021/03/30 00:18:04;;;;;;;10.03;8.13;;;6.90;99.90;;;;;;5015061;28;20229;-77
2021/03/30 00:20:31;;;;;;;9.07;8.27;;;6.80;99.90;;;;;;5013974;28;20201;-77
2021/03/30 00:22:57;;;;;;;9.00;8.20;;;6.70;99.90;;;;;;5030787;28;20208;-77
2021/03/30 00:25:23;;;;;;;8.63;7.83;;;6.70;99.90;;;;;;5031116;28;20250;-77
2021/03/30 00:27:50;;;;;;;8.77;7.97;;;6.60;99.90;;;;;;5011715;28;20208;-77
2021/03/30 00:30:18;;;;;;;11.57;8.63;;;6.60;99.90;;;;;;5012414;28;20197;-78
2021/03/30 00:32:44;;;;;;;9.20;8.40;;;6.60;99.90;;;;;;5012876;28;20196;-77
2021/03/30 00:35:11;;;;;;;9.73;8.83;;;6.60;99.90;;;;;;5012664;28;20571;-77
2021/03/30 00:37:38;;;;;;;9.27;8.33;;;6.70;99.90;;;;;;5029145;28;20208;-77
2021/03/30 00:40:06;;;;;;;8.47;7.73;;;6.70;99.90;;;;;;5029626;28;20188;-77
2021/03/30 00:42:32;;;;;;;9.23;8.37;;;6.80;99.90;;;;;;5018275;28;20692;-77
2021/03/30 00:44:59;;;;;;;8.40;7.60;;;6.80;99.90;;;;;;5009247;28;20201;-77
2021/03/30 00:47:28;;;;;;;9.03;8.23;;;6.80;99.90;;;;;;5030605;28;20197;-77
2021/03/30 00:49:55;;;;;;;8.90;8.10;;;6.70;99.90;;;;;;5008778;28;20266;-77
2021/03/30 00:52:23;;;;;;;8.93;8.13;;;6.70;99.90;;;;;;5015937;28;20681;-77
2021/03/30 00:55:09;;;;;;;11.73;8.50;;;6.70;99.90;;;;;;5026383;28;20258;-77
2021/03/30 00:57:39;;;;;;;9.07;8.20;;;6.70;99.90;;;;;;5017979;28;20228;-77
2021/03/30 01:00:08;;;;;;;8.43;7.63;;;6.70;99.90;;;;;;5030343;28;20200;-77
2021/03/30 01:02:35;;;;;;;8.80;8.10;;;6.70;99.90;;;;;;5035130;28;20547;-77
2021/03/30 01:05:02;;;;;;;10.00;8.83;;;6.70;99.90;;;;;;5009633;28;20205;-77
2021/03/30 01:07:29;;;;;;;8.90;7.97;;;6.80;99.90;;;;;;5026702;28;20196;-77
2021/03/30 01:10:04;;;;;;;9.50;8.53;;;6.70;99.90;;;;;;5052254;23;20231;-80
2021/03/30 01:12:46;;;;;;;8.60;7.90;;;6.70;99.90;;;;;;5019878;28;20207;-79
2021/03/30 01:15:19;;;;;;;9.13;8.43;;;6.70;99.90;;;;;;5021168;28;20201;-80
2021/03/30 01:17:53;;;;;;;8.70;8.00;;;6.70;99.90;;;;;;5019814;28;20304;-80
2021/03/30 01:20:56;;;;;;;9.60;8.70;;;6.60;99.90;;;;;;5017786;28;20217;-79
2021/03/30 01:23:33;;;;;;;9.03;8.23;;;6.50;99.90;;;;;;5027898;28;20196;-80
2021/03/30 01:26:17;;;;;;;9.07;8.17;;;6.50;99.90;;;;;;5024441;28;20668;-79
2021/03/30 01:29:12;;;;;;;10.13;9.13;;;6.40;99.90;;;;;;5018342;28;20579;-80
2021/03/30 01:31:40;;;;;;;12.77;10.50;;;6.30;99.90;;;;;;5017468;28;20196;-77
2021/03/30 01:34:09;;;;;;;12.90;9.90;;;6.20;99.90;;;;;;5021808;28;20199;-79
2021/03/30 01:36:39;;;;;;;12.77;9.70;;;6.20;99.90;;;;;;5040115;28;20687;-80
2021/03/30 01:39:09;;;;;;;12.03;9.90;;;6.20;99.90;;;;;;5035621;28;20220;-80
2021/03/30 01:41:38;;;;;;;10.77;9.67;;;6.20;99.90;;;;;;5032468;28;20204;-80
2021/03/30 01:44:06;;;;;;;10.33;9.23;;;6.20;99.90;;;;;;5025606;28;20266;-80
2021/03/30 01:46:34;;;;;;;10.87;9.23;;;6.20;99.90;;;;;;5032914;28;20200;-80
2021/03/30 01:49:01;;;;;;;9.73;8.80;;;6.20;99.90;;;;;;5032383;28;20224;-80
2021/03/30 01:51:29;;;;;;;9.60;8.70;;;6.10;99.90;;;;;;5042808;28;20200;-80
2021/03/30 01:53:57;;;;;;;12.63;10.00;;;6.00;99.90;;;;;;5044154;28;20566;-80
2021/03/30 01:56:24;;;;;;;11.97;10.30;;;6.00;99.90;;;;;;5036290;28;20181;-80
2021/03/30 01:58:52;;;;;;;12.53;10.60;;;5.90;99.90;;;;;;5040625;28;20228;-80
2021/03/30 02:01:21;;;;;;;11.10;9.30;;;5.90;99.90;;;;;;5043158;28;20677;-79
2021/03/30 02:03:50;;;;;;;12.23;10.20;;;5.80;99.90;;;;;;5039257;28;20618;-80
2021/03/30 02:06:16;;;;;;;13.60;10.57;;;5.80;99.90;;;;;;5030512;28;20207;-80
2021/03/30 02:08:44;;;;;;;12.40;10.50;;;5.70;99.90;;;;;;5036507;28;20223;-80
2021/03/30 02:11:19;;;;;;;11.33;10.20;;;5.80;99.90;;;;;;5036634;28;20201;-80
2021/03/30 02:13:53;;;;;;;11.57;10.37;;;5.80;99.90;;;;;;5034635;28;20206;-80
2021/03/30 02:16:23;;;;;;;11.80;9.80;;;5.80;99.90;;;;;;5038829;28;20200;-80
2021/03/30 02:18:57;;;;;;;10.63;9.50;;;5.80;99.90;;;;;;5038728;28;20219;-79
2021/03/30 02:21:32;;;;;;;11.80;10.00;;;5.70;99.90;;;;;;5039242;28;20208;-80
2021/03/30 02:24:02;;;;;;;11.07;8.83;;;5.80;99.90;;;;;;5031543;28;20652;-80
2021/03/30 02:26:30;;;;;;;9.53;8.63;;;5.80;99.90;;;;;;5040392;28;20204;-79
2021/03/30 02:28:59;;;;;;;10.40;9.50;;;5.70;99.90;;;;;;5033093;28;20688;-79
2021/03/30 02:31:29;;;;;;;10.50;9.50;;;5.70;99.90;;;;;;5034019;28;20199;-79
2021/03/30 02:34:01;;;;;;;10.53;9.53;;;5.70;99.90;;;;;;5014941;28;20222;-77
2021/03/30 02:36:29;;;;;;;10.90;9.63;;;5.70;99.90;;;;;;5038506;28;20191;-78
2021/03/30 02:39:00;;;;;;;11.27;9.63;;;5.70;99.90;;;;;;5032353;28;20223;-81
2021/03/30 02:41:28;;;;;;;10.37;9.43;;;5.70;99.90;;;;;;5029319;28;20295;-81
2021/03/30 02:43:56;;;;;;;10.03;9.23;;;5.70;99.90;;;;;;5023491;28;20253;-81
2021/03/30 02:46:23;;;;;;;9.97;9.07;;;5.70;99.90;;;;;;5023610;28;20555;-80
2021/03/30 02:48:50;;;;;;;10.00;9.00;;;5.60;99.90;;;;;;5030690;28;20204;-81
2021/03/30 02:51:21;;;;;;;10.23;9.30;;;5.50;99.90;;;;;;5032100;28;20219;-81
2021/03/30 02:53:48;;;;;;;8.90;8.10;;;5.40;99.90;;;;;;5026317;28;20687;-78
2021/03/30 02:56:15;;;;;;;8.70;7.90;;;5.30;99.90;;;;;;5019765;28;20258;-79
2021/03/30 02:58:42;;;;;;;9.03;8.23;;;5.30;99.90;;;;;;5003015;28;20224;-80
2021/03/30 03:01:10;;;;;;;9.20;8.40;;;5.30;99.90;;;;;;5039391;28;20192;-80
2021/03/30 03:03:38;;;;;;;9.33;8.53;;;5.30;99.90;;;;;;5017955;28;20192;-81
2021/03/30 03:06:05;;;;;;;9.00;8.20;;;5.30;99.90;;;;;;5028465;28;20200;-79
2021/03/30 03:08:34;;;;;;;8.53;7.83;;;5.20;99.90;;;;;;5026715;28;20230;-79
2021/03/30 03:11:02;;;;;;;8.87;8.07;;;5.20;99.90;;;;;;5011595;28;20258;-80
2021/03/30 03:13:29;;;;;;;9.77;8.87;;;5.20;99.90;;;;;;5007129;28;20696;-78
2021/03/30 03:15:56;;;;;;;9.60;8.70;;;5.30;99.90;;;;;;5017669;28;20549;-78
2021/03/30 03:18:23;;;;;;;9.77;8.97;;;5.20;99.90;;;;;;5023751;28;20227;-79
2021/03/30 03:20:51;;;;;;;10.37;9.47;;;5.20;99.90;;;;;;5005800;28;20204;-78
2021/03/30 03:23:18;;;;;;;9.97;9.07;;;5.10;99.90;;;;;;5019897;28;20203;-78
2021/03/30 03:25:46;;;;;;;10.30;9.40;;;5.00;99.90;;;;;;5027844;28;20645;-77
2021/03/30 03:28:12;;;;;;;10.00;9.10;;;4.90;99.90;;;;;;5018938;28;20193;-78
2021/03/30 03:30:41;;;;;;;10.60;9.70;;;4.90;99.90;;;;;;5022172;28;20199;-79
2021/03/30 03:33:08;;;;;;;10.90;9.87;;;4.80;99.90;;;;;;5017315;28;20212;-78
2021/03/30 03:35:35;;;;;;;10.07;9.10;;;4.70;99.90;;;;;;5019333;28;20242;-78
2021/03/30 03:38:04;;;;;;;10.73;9.63;;;4.70;99.90;;;;;;5016812;28;20205;-77
2021/03/30 03:40:31;;;;;;;10.17;9.20;;;4.70;99.90;;;;;;5018490;28;20196;-78
2021/03/30 03:42:58;;;;;;;10.23;9.33;;;4.60;99.90;;;;;;5010464;28;20196;-78
2021/03/30 03:45:27;;;;;;;10.10;9.10;;;4.60;99.90;;;;;;5012653;28;20204;-78
2021/03/30 03:47:53;;;;;;;10.93;8.63;;;4.60;99.90;;;;;;5012358;28;20562;-78
2021/03/30 03:50:20;;;;;;;9.80;8.70;;;4.60;99.90;;;;;;4995337;28;20224;-78
2021/03/30 03:52:54;;;;;;;9.37;8.50;;;4.50;99.90;;;;;;5015855;28;20251;-78
2021/03/30 03:55:21;;;;;;;9.87;8.97;;;4.50;99.90;;;;;;5015687;28;20202;-78
2021/03/30 03:57:51;;;;;;;10.13;9.07;;;4.50;99.90;;;;;;5015190;28;20486;-79
2021/03/30 04:00:20;;;;;;;10.30;9.30;;;4.50;99.90;;;;;;4998699;28;20475;-77
2021/03/30 04:02:50;;;;;;;10.20;9.37;;;4.40;99.90;;;;;;4998056;28;20439;-77
2021/03/30 04:05:21;;;;;;;9.20;8.40;;;4.50;99.90;;;;;;4998608;28;20204;-76
2021/03/30 04:07:51;;;;;;;9.60;8.70;;;4.40;99.90;;;;;;5023856;28;20451;-78
2021/03/30 04:10:20;;;;;;;9.70;8.23;;;4.50;99.90;;;;;;5025954;28;20457;-76
2021/03/30 04:12:48;;;;;;;10.23;8.83;;;4.50;99.90;;;;;;5021196;28;20739;-76
2021/03/30 04:15:15;;;;;;;9.47;8.53;;;4.50;99.90;;;;;;5031014;28;20431;-77
2021/03/30 04:17:43;;;;;;;8.90;8.10;;;4.50;99.90;;;;;;5027648;28;20196;-76
2021/03/30 04:20:12;;;;;;;8.83;8.03;;;4.50;99.90;;;;;;5023525;28;20212;-78
2021/03/30 04:22:39;;;;;;;8.50;7.70;;;4.40;99.90;;;;;;5026304;28;20435;-78
2021/03/30 04:25:06;;;;;;;8.57;7.77;;;4.40;99.90;;;;;;5023289;28;20205;-77
2021/03/30 04:27:32;;;;;;;9.37;8.43;;;4.30;99.90;;;;;;5028090;28;20825;-76
2021/03/30 04:30:03;;;;;;;8.83;8.10;;;4.30;99.90;;;;;;5017552;28;20224;-74
2021/03/30 04:32:29;;;;;;;12.00;9.40;;;4.30;99.90;;;;;;5016650;28;20430;-76
2021/03/30 04:34:56;;;;;;;10.50;9.33;;;4.30;99.90;;;;;;5001590;28;20474;-74
2021/03/30 04:37:22;;;;;;;9.90;9.10;;;4.30;99.90;;;;;;5001231;28;20506;-78
2021/03/30 04:39:49;;;;;;;9.93;9.03;;;4.40;99.90;;;;;;5015843;28;20463;-77
2021/03/30 04:42:15;;;;;;;9.83;8.93;;;4.30;99.90;;;;;;5002629;28;20439;-76
2021/03/30 04:44:41;;;;;;;9.40;8.60;;;4.30;99.90;;;;;;5024653;28;20481;-77
2021/03/30 04:47:08;;;;;;;9.70;8.80;;;4.30;99.90;;;;;;5024177;28;20812;-78
2021/03/30 04:49:34;;;;;;;10.47;9.53;;;4.30;99.90;;;;;;5018312;28;20220;-78
2021/03/30 04:52:01;;;;;;;10.50;9.50;;;4.20;99.90;;;;;;5024085;28;20435;-76
2021/03/30 04:54:27;;;;;;;10.90;9.90;;;4.20;99.90;;;;;;5029281;28;20991;-76
2021/03/30 04:56:54;;;;;;;10.60;9.70;;;4.20;99.90;;;;;;5029418;28;20447;-78
2021/03/30 04:59:20;;;;;;;10.33;9.43;;;4.20;99.90;;;;;;5032717;28;21001;-79
2021/03/30 05:01:46;;;;;;;10.30;9.30;;;4.20;99.90;;;;;;5030011;28;20449;-79
2021/03/30 05:04:13;;;;;;;10.20;9.00;;;4.20;99.90;;;;;;5005289;28;20455;-79
2021/03/30 05:06:39;;;;;;;11.37;10.30;;;4.20;99.90;;;;;;5018809;28;20462;-79
2021/03/30 05:09:07;;;;;;;11.10;10.03;;;4.30;99.90;;;;;;5045652;28;20481;-76
2021/03/30 05:11:33;;;;;;;11.37;10.30;;;4.30;99.90;;;;;;5029802;28;20496;-78
2021/03/30 05:14:00;;;;;;;13.20;10.10;;;4.20;99.90;;;;;;5021318;28;20285;-78
2021/03/30 05:16:26;;;;;;;10.90;9.90;;;4.20;99.90;;;;;;5042043;28;20447;-79
2021/03/30 05:18:52;;;;;;;10.90;9.90;;;4.20;99.90;;;;;;5039743;28;20488;-78
2021/03/30 05:21:19;;;;;;;10.30;9.37;;;4.20;99.90;;;;;;5024293;28;20450;-78
2021/03/30 05:23:45;;;;;;;10.90;9.93;;;4.20;99.90;;;;;;5024367;28;20451;-78
2021/03/30 05:26:13;;;;;;;11.37;10.37;;;4.20;99.90;;;;;;5018643;28;20959;-78
2021/03/30 05:28:39;;;;;;;10.93;10.03;;;4.30;99.90;;;;;;5031174;28;20481;-78
2021/03/30 05:31:05;;;;;;;10.83;9.83;;;4.30;99.90;;;;;;5029559;28;20435;-79
2021/03/30 05:33:32;;;;;;;11.17;10.17;;;4.30;99.90;;;;;;5029517;28;20990;-78
2021/03/30 05:35:58;;;;;;;11.40;10.30;;;4.40;99.90;;;;;;5030238;28;20438;-78
2021/03/30 05:38:25;;;;;;;11.57;10.37;;;4.40;99.90;;;;;;5016724;28;20890;-78
2021/03/30 05:40:51;;;;;;;10.37;9.43;;;4.50;99.90;;;;;;5025490;28;20831;-78
2021/03/30 05:43:18;;;;;;;10.43;9.63;;;4.60;99.90;;;;;;5022965;28;20204;-77
2021/03/30 05:45:45;;;;;;;10.60;9.70;;;4.60;99.90;;;;;;5020973;28;20815;-78
2021/03/30 05:48:13;;;;;;;10.53;9.53;;;4.80;99.90;;;;;;5025843;28;20477;-77
2021/03/30 05:50:39;;;;;;;10.47;9.50;;;5.00;99.90;;;;;;5030283;28;20188;-78
2021/03/30 05:53:08;;;;;;;11.97;10.77;;;5.40;99.90;;;;;;5025712;28;20816;-78
2021/03/30 05:55:35;;;;;;;11.40;10.20;;;5.80;99.90;;;;;;5017548;28;20211;-78
2021/03/30 05:58:04;;;;;;;11.63;10.07;;;6.10;99.90;;;;;;5015656;28;20201;-79
2021/03/30 06:00:34;;;;;;;11.27;10.27;;;6.40;99.90;;;;;;5033100;28;20211;-78
2021/03/30 06:03:03;;;;;;;14.60;9.60;;;6.70;99.90;;;;;;5024204;28;20196;-79
2021/03/30 06:05:30;;;;;;;8.00;6.90;;;7.00;99.90;;;;;;5033329;28;20217;-78
2021/03/30 06:07:58;;;;;;;10.60;8.63;;;7.30;99.90;;;;;;5032105;28;20303;-78
2021/03/30 06:10:27;;;;;;;9.13;7.57;;;7.50;99.90;;;;;;5028859;28;20236;-79
2021/03/30 06:12:53;;;;;;;8.27;7.00;;;7.90;99.90;;;;;;5031873;28;20205;-78
2021/03/30 06:15:25;;;;;;;6.97;4.97;;;8.20;99.90;;;;;;5031068;28;20209;-78
2021/03/30 06:17:52;;;;;;;7.60;6.80;;;8.40;99.90;;;;;;5030312;28;20198;-79
2021/03/30 06:20:27;;;;;;;7.97;7.17;;;8.70;99.90;;;;;;5029640;28;20220;-79
2021/03/30 06:22:54;;;;;;;7.23;6.50;;;8.80;99.90;;;;;;5030455;28;20691;-79
2021/03/30 06:25:43;;;;;;;10.33;7.13;;;8.90;99.90;;;;;;5033690;28;20199;-79
2021/03/30 06:28:16;;;;;;;7.67;6.97;;;9.00;99.90;;;;;;5031393;28;20210;-78
2021/03/30 06:30:58;;;;;;;11.00;9.03;;;9.20;99.90;;;;;;5019634;28;20200;-79
2021/03/30 06:33:26;;;;;;;8.03;7.03;;;9.30;99.90;;;;;;5018674;28;20208;-79
2021/03/30 06:36:09;;;;;;;8.07;7.37;;;9.40;99.90;;;;;;5016566;28;20206;-79
2021/03/30 06:38:56;;;;;;;8.70;5.50;;;9.40;99.90;;;;;;5026879;28;20720;-79
2021/03/30 06:41:32;;;;;;;10.03;8.63;;;9.40;99.90;;;;;;5023645;28;20207;-80
2021/03/30 06:46:50;;;;;;;9.30;8.40;;;9.50;99.90;;;;;;5013322;28;20417;-79
2021/03/30 06:49:17;;;;;;;9.03;8.33;;;9.50;99.90;;;;;;5020463;28;20216;-79
2021/03/30 06:51:44;;;;;;;10.37;8.20;;;9.60;99.90;;;;;;5028928;28;20551;-79
2021/03/30 06:54:11;;;;;;;9.00;8.20;;;9.60;99.90;;;;;;5025744;28;20562;-79
2021/03/30 06:56:49;;;;;;;9.87;8.60;;;9.60;99.90;;;;;;5024805;28;20184;-79
2021/03/30 06:59:15;;;;;;;7.77;7.17;;;9.70;99.90;;;;;;5024232;28;20203;-79
2021/03/30 07:01:43;;;;;;;9.17;7.13;;;9.90;99.90;;;;;;5024265;28;20299;-79
2021/03/30 07:04:10;;;;;;;9.87;9.07;;;10.20;99.90;;;;;;5028089;28;20586;-79
2021/03/30 07:06:39;;;;;;;9.70;8.90;;;10.40;99.90;;;;;;5033478;28;20664;-79
2021/03/30 07:09:09;;;;;;;9.90;8.97;;;10.60;99.90;;;;;;5033867;28;20265;-79
2021/03/30 07:11:39;;;;;;;11.47;10.07;;;10.70;99.90;;;;;;5015420;28;20200;-79
2021/03/30 07:14:06;;;;;;;10.27;9.30;;;11.00;99.90;;;;;;5024888;28;20208;-79
2021/03/30 07:16:35;;;;;;;9.87;7.93;;;11.40;99.90;;;;;;5025673;28;20203;-79
2021/03/30 07:19:02;;;;;;;9.10;7.67;;;11.70;99.90;;;;;;5026955;28;20275;-79
2021/03/30 07:21:33;;;;;;;8.77;7.87;;;12.00;99.90;;;;;;5022824;28;20633;-79
2021/03/30 07:24:05;;;;;;;10.33;7.67;;;12.40;99.90;;;;;;5026991;28;20199;-79
2021/03/30 07:26:36;;;;;;;10.57;9.67;;;12.80;99.90;;;;;;5035575;28;20194;-79
2021/03/30 07:29:05;;;;;;;9.83;8.73;;;13.10;99.90;;;;;;5026930;28;20229;-80
2021/03/30 07:31:37;;;;;;;10.10;9.27;;;13.40;99.90;;;;;;5023222;28;20204;-79
2021/03/30 07:34:07;;;;;;;9.67;8.90;;;13.80;99.90;;;;;;5030063;28;20203;-79
2021/03/30 07:36:41;;;;;;;10.33;9.33;;;14.10;99.90;;;;;;5020618;28;20649;-79
2021/03/30 07:39:09;;;;;;;8.80;8.00;;;14.30;99.90;;;;;;5023456;28;20231;-80
2021/03/30 07:41:39;;;;;;;9.57;8.77;;;14.40;99.90;;;;;;5025076;28;20563;-80
2021/03/30 07:44:07;;;;;;;10.33;9.40;;;14.70;99.90;;;;;;5031769;28;20227;-79
2021/03/30 07:46:34;;;;;;;11.13;10.20;;;14.80;99.90;;;;;;5017574;28;20202;-79
2021/03/30 07:49:02;;;;;;;10.50;9.60;;;15.00;99.90;;;;;;5032014;28;20286;-79
2021/03/30 07:51:37;;;;;;;9.80;8.77;;;15.30;99.90;;;;;;5026462;28;20676;-77
2021/03/30 07:54:10;;;;;;;9.93;8.93;;;15.60;99.90;;;;;;5034862;28;20588;-78
2021/03/30 07:56:51;;;;;;;9.27;8.40;;;15.90;99.90;;;;;;5000169;28;20241;-77
2021/03/30 07:59:42;;;;;;;9.43;8.63;;;16.10;99.90;;;;;;5026717;28;20266;-78
2021/03/30 08:02:12;;;;;;;9.70;8.90;;;16.40;99.90;;;;;;5031990;28;20193;-78
2021/03/30 08:04:38;;;;;;;8.47;7.77;;;16.70;99.90;;;;;;5031812;28;20200;-77
2021/03/30 08:07:04;;;;;;;9.10;8.30;;;17.00;99.90;;;;;;5031545;28;20194;-78
2021/03/30 08:09:32;;;;;;;8.93;8.13;;;16.90;99.90;;;;;;5024529;28;20225;-78
2021/03/30 08:11:59;;;;;;;10.00;9.10;;;16.80;98.80;;;;;;5031843;28;20217;-78
2021/03/30 08:14:39;;;;;;;10.07;9.23;;;17.00;99.20;;;;;;5032764;28;20202;-79
2021/03/30 08:17:12;;;;;;;10.10;9.10;;;17.10;99.70;;;;;;5029418;28;20297;-81
2021/03/30 08:19:59;;;;;;;11.33;8.30;;;17.40;98.10;;;;;;5031552;28;20218;-80
2021/03/30 08:22:28;;;;;;;8.87;7.67;;;17.40;97.90;;;;;;5029550;28;20253;-81
2021/03/30 08:24:58;;;;;;;9.13;8.27;;;17.60;98.30;;;;;;5027335;28;20814;-80
2021/03/30 08:27:39;;;;;;;8.37;7.60;;;17.80;96.50;;;;;;5040483;28;20251;-81
2021/03/30 08:30:30;;;;;;;9.00;8.20;;;17.70;96.90;;;;;;5041416;28;20222;-80
2021/03/30 08:32:59;;;;;;;9.27;8.30;;;18.00;96.60;;;;;;5029174;28;20188;-79
2021/03/30 08:35:34;;;;;;;8.70;7.90;;;18.40;96.90;;;;;;5031729;28;20205;-79
2021/03/30 08:38:05;;;;;;;13.27;8.23;;;18.70;96.70;;;;;;5042496;28;20255;-80
2021/03/30 08:40:42;;;;;;;8.47;7.07;;;18.80;94.70;;;;;;5036330;28;20196;-81
2021/03/30 08:43:22;;;;;;;9.13;7.73;;;18.60;95.10;;;;;;5038739;28;20722;-80
2021/03/30 08:46:06;;;;;;;9.00;8.20;;;18.70;95.40;;;;;;5035920;28;20191;-80
2021/03/30 08:48:38;;;;;;;8.77;7.57;;;18.80;95.00;;;;;;5039038;28;20282;-79
2021/03/30 08:51:07;;;;;;;9.60;8.70;;;18.90;95.00;;;;;;5022258;28;20684;-80
2021/03/30 08:53:34;;;;;;;8.90;7.60;;;19.20;94.90;;;;;;5022621;28;20196;-81
2021/03/30 08:56:06;;;;;;;9.30;8.40;;;19.50;94.00;;;;;;5037818;28;20193;-80
2021/03/30 08:58:33;;;;;;;8.40;7.60;;;19.60;93.40;;;;;;5026510;28;20219;-84
2021/03/30 09:01:07;;;;;;;9.30;8.40;;;19.60;93.70;;;;;;5026318;28;20195;-78
2021/03/30 09:03:33;;;;;;;9.03;8.13;;;19.70;93.40;;;;;;5025404;28;20194;-77
2021/03/30 09:06:00;;;;;;;9.27;8.13;;;19.70;92.90;;;;;;5024922;28;20201;-78
2021/03/30 09:08:37;;;;;;;10.53;9.43;;;20.00;92.80;;;;;;5022312;28;20228;-77
2021/03/30 09:11:18;;;;;;;9.30;8.50;;;19.70;92.00;;;;;;5024022;28;20201;-78
2021/03/30 09:14:00;;;;;;;10.47;8.93;;;19.90;92.30;;;;;;5021957;28;20194;-77
2021/03/30 09:16:27;;;;;;;10.00;9.10;;;19.90;92.20;;;;;;5021980;28;20255;-77
2021/03/30 09:19:19;;;;;;;9.50;8.50;;;19.80;91.00;;;;;;5030941;28;20593;-82
2021/03/30 09:21:49;;;;;;;12.87;8.77;;;19.70;91.50;;;;;;5025646;28;20265;-81
2021/03/30 09:24:27;;;;;;;9.27;8.47;;;19.70;91.20;;;;;;5035513;28;20194;-78
2021/03/30 09:26:54;;;;;;;10.50;8.90;;;19.40;90.70;;;;;;5032600;28;20196;-80
2021/03/30 09:29:21;;;;;;;9.40;8.27;;;19.60;91.20;;;;;;5024791;28;20227;-80
2021/03/30 09:31:48;;;;;;;11.07;8.70;;;19.80;91.80;;;;;;5031863;28;20200;-80
2021/03/30 09:34:15;;;;;;;9.27;8.37;;;19.80;91.30;;;;;;5034994;28;20804;-81
2021/03/30 09:36:43;;;;;;;10.43;9.20;;;20.10;91.00;;;;;;5031916;28;20196;-80
2021/03/30 09:39:17;;;;;;;10.47;9.53;;;19.80;91.90;;;;;;5032671;28;20217;-81
2021/03/30 09:41:44;;;;;;;11.43;8.87;;;19.90;92.30;;;;;;5024427;28;20267;-80
2021/03/30 09:44:12;;;;;;;9.97;9.07;;;20.10;92.40;;;;;;5012393;28;20212;-81
2021/03/30 09:46:38;;;;;;;11.13;8.47;;;20.40;92.70;;;;;;5009929;28;20209;-79
2021/03/30 09:49:08;;;;;;;9.47;8.60;;;20.80;92.60;;;;;;5008624;28;20238;-79
2021/03/30 09:51:34;;;;;;;9.60;8.80;;;20.60;91.50;;;;;;5024367;28;20257;-77
2021/03/30 09:54:01;;;;;;;9.23;8.30;;;20.40;92.00;;;;;;5030379;28;20197;-80
2021/03/30 09:56:31;;;;;;;8.83;8.07;;;20.40;91.50;;;;;;5008782;28;20205;-80
2021/03/30 09:58:59;;;;;;;9.77;8.87;;;20.60;91.40;;;;;;5006159;28;20224;-81
2021/03/30 10:01:27;;;;;;;9.57;8.70;;;20.40;90.70;;;;;;5020655;28;20206;-80
2021/03/30 10:03:54;;;;;;;9.37;8.47;;;20.30;91.00;;;;;;5002724;28;20213;-79
2021/03/30 10:06:21;;;;;;;8.77;7.97;;;20.30;90.90;;;;;;4999760;28;20218;-80
2021/03/30 10:08:48;;;;;;;9.20;8.30;;;20.20;91.50;;;;;;5012951;28;20695;-81
2021/03/30 10:11:25;;;;;;;8.70;8.00;;;20.00;91.40;;;;;;5028583;28;20208;-79
2021/03/30 10:13:52;;;;;;;9.63;8.80;;;20.10;90.90;;;;;;5032406;28;20665;-81
2021/03/30 10:16:18;;;;;;;9.57;8.57;;;20.10;91.20;;;;;;5031366;28;20190;-80
2021/03/30 10:18:45;;;;;;;8.67;7.87;;;20.10;90.50;;;;;;5013555;28;20629;-80
2021/03/30 10:21:17;;;;;;;9.13;8.33;;;20.20;90.70;;;;;;5022275;28;20194;-80
2021/03/30 10:23:44;;;;;;;9.33;8.43;;;20.10;90.00;;;;;;5015898;28;20202;-80
2021/03/30 10:26:13;;;;;;;9.27;8.47;;;19.90;90.50;;;;;;5028622;28;20203;-81
2021/03/30 10:28:40;;;;;;;9.60;8.60;;;19.90;90.70;;;;;;5025956;28;20220;-80
2021/03/30 10:31:11;;;;;;;9.03;8.13;;;19.90;90.80;;;;;;5029618;28;20619;-80
2021/03/30 10:33:40;;;;;;;8.83;7.93;;;19.90;90.70;;;;;;5021642;28;20197;-81
2021/03/30 10:36:09;;;;;;;8.87;8.10;;;19.90;90.90;;;;;;5021780;28;20207;-79
2021/03/30 10:38:36;;;;;;;8.93;8.00;;;20.00;89.20;;;;;;5014841;28;20219;-80
2021/03/30 10:41:05;;;;;;;9.40;8.13;;;20.00;90.50;;;;;;5022139;28;20201;-81
2021/03/30 10:43:31;;;;;;;9.13;8.27;;;20.00;90.10;;;;;;5032945;28;20198;-80
2021/03/30 10:45:58;;;;;;;9.03;8.10;;;20.00;90.90;;;;;;5019442;28;20280;-80
2021/03/30 10:48:24;;;;;;;10.73;8.30;;;20.10;91.20;;;;;;5023699;28;20225;-80
2021/03/30 10:50:52;;;;;;;9.00;8.20;;;20.20;90.30;;;;;;5020054;28;20201;-80
2021/03/30 10:53:20;;;;;;;9.17;8.27;;;20.20;90.40;;;;;;5029303;28;20201;-80
2021/03/30 10:55:47;;;;;;;9.50;8.60;;;20.20;88.70;;;;;;5020159;28;20277;-79
2021/03/30 10:58:14;;;;;;;9.30;8.40;;;20.20;88.80;;;;;;5016913;28;20206;-79
2021/03/30 11:00:41;;;;;;;9.67;8.87;;;20.20;88.30;;;;;;5013476;28;20670;-81
2021/03/30 11:03:08;;;;;;;9.37;8.57;;;20.20;88.80;;;;;;5025684;28;20253;-81
2021/03/30 11:05:35;;;;;;;8.93;8.20;;;20.20;86.30;;;;;;5023321;28;20193;-79
2021/03/30 11:08:02;;;;;;;8.87;8.10;;;20.20;86.80;;;;;;5032799;28;20212;-80
2021/03/30 11:10:31;;;;;;;11.33;8.13;;;20.20;87.20;;;;;;5023768;28;20288;-79
2021/03/30 11:12:58;;;;;;;10.00;9.10;;;20.20;84.30;;;;;;5030500;28;20194;-80
2021/03/30 11:15:24;;;;;;;9.30;8.47;;;20.10;85.20;;;;;;5025629;28;20212;-81
2021/03/30 11:17:50;;;;;;;9.57;8.60;;;20.10;87.20;;;;;;5024487;28;20654;-80
2021/03/30 11:20:17;;;;;;;9.53;8.63;;;20.30;89.00;;;;;;5021925;28;20216;-79
2021/03/30 11:22:45;;;;;;;10.23;9.00;;;20.30;83.70;;;;;;5024242;28;20732;-79
2021/03/30 11:25:13;;;;;;;9.40;7.80;;;20.20;82.50;;;;;;5029040;28;20200;-79
2021/03/30 11:27:42;;;;;;;8.93;8.13;;;20.30;84.80;;;;;;5025736;28;20200;-80
2021/03/30 11:30:13;;;;;;;9.03;8.13;;;20.40;81.80;;;;;;5029097;28;20695;-79
2021/03/30 11:32:53;;;;;;;9.13;8.33;;;20.30;80.90;;;;;;5000506;28;20198;-80
2021/03/30 11:35:21;;;;;;;9.80;8.80;;;20.40;81.40;;;;;;5008552;28;20201;-80
2021/03/30 11:37:55;;;;;;;8.83;8.03;;;20.50;81.00;;;;;;5024546;28;20196;-80
2021/03/30 11:40:21;;;;;;;9.90;8.47;;;20.50;80.60;;;;;;5028940;28;20221;-80
2021/03/30 11:42:49;;;;;;;12.13;9.33;;;20.50;83.10;;;;;;5024007;28;20199;-81
2021/03/30 11:45:16;;;;;;;9.57;8.67;;;20.50;82.40;;;;;;5019015;28;20201;-81
2021/03/30 11:47:42;;;;;;;9.67;8.70;;;20.50;82.00;;;;;;5032658;28;20197;-82
2021/03/30 11:50:10;;;;;;;10.07;9.10;;;20.50;82.30;;;;;;5029673;28;20596;-81
2021/03/30 11:52:36;;;;;;;9.53;8.53;;;20.50;82.30;;;;;;5016449;28;20273;-81
2021/03/30 11:55:06;;;;;;;8.93;8.13;;;20.60;81.60;;;;;;5002462;28;20583;-81
2021/03/30 11:57:32;;;;;;;10.60;9.50;;;20.80;81.70;;;;;;5019245;28;20201;-81
2021/03/30 11:59:59;;;;;;;9.83;8.53;;;20.80;82.30;;;;;;5018137;28;20732;-81
2021/03/30 12:02:28;;;;;;;8.63;7.93;;;20.90;82.70;;;;;;5018960;28;20620;-81
2021/03/30 12:04:54;;;;;;;10.90;8.57;;;21.00;82.40;;;;;;5002055;28;20581;-81
2021/03/30 12:07:21;;;;;;;11.00;8.20;;;21.00;81.10;;;;;;5004188;28;20210;-82
2021/03/30 12:09:47;;;;;;;9.80;8.77;;;21.00;82.30;;;;;;5006721;28;20222;-82
2021/03/30 12:12:13;;;;;;;9.50;8.03;;;21.00;82.00;;;;;;5020605;28;20769;-81
2021/03/30 12:14:40;;;;;;;9.53;8.73;;;21.10;80.10;;;;;;5021518;28;20206;-81
2021/03/30 12:17:07;;;;;;;10.63;9.63;;;21.20;79.50;;;;;;5006070;28;20205;-81
2021/03/30 12:19:33;;;;;;;9.60;8.80;;;21.20;79.20;;;;;;5020896;28;20229;-81
2021/03/30 12:22:00;;;;;;;10.67;9.57;;;21.30;78.30;;;;;;5005228;28;20702;-82
2021/03/30 12:24:26;;;;;;;9.53;8.70;;;21.20;78.10;;;;;;5007679;28;20225;-80
2021/03/30 12:26:52;;;;;;;9.33;8.53;;;21.20;77.10;;;;;;5004333;28;20203;-81
2021/03/30 12:29:19;;;;;;;9.40;8.50;;;21.30;78.20;;;;;;5020973;28;20222;-81
2021/03/30 12:31:45;;;;;;;9.67;8.87;;;21.30;76.80;;;;;;5004567;28;20221;-81
2021/03/30 12:34:13;;;;;;;9.70;8.90;;;21.30;77.50;;;;;;5020594;28;20195;-82
2021/03/30 12:36:39;;;;;;;10.07;9.07;;;21.40;77.60;;;;;;5019879;28;20222;-81
2021/03/30 12:39:07;;;;;;;9.40;8.60;;;21.40;75.60;;;;;;5004194;28;20218;-82
2021/03/30 12:41:33;;;;;;;10.20;9.03;;;21.40;77.30;;;;;;5006350;28;20670;-81
2021/03/30 12:43:59;;;;;;;9.43;8.60;;;21.40;76.30;;;;;;5020160;28;20224;-81
2021/03/30 12:46:26;;;;;;;10.37;9.47;;;21.50;76.90;;;;;;5021439;28;20208;-81
2021/03/30 12:48:53;;;;;;;9.27;8.40;;;21.60;74.60;;;;;;5021502;28;20282;-83
2021/03/30 12:51:20;;;;;;;8.53;7.60;;;21.70;74.50;;;;;;5020910;28;20699;-82
2021/03/30 12:53:46;;;;;;;9.33;8.37;;;21.90;72.40;;;;;;5004795;28;20258;-82
2021/03/30 12:56:13;;;;;;;9.00;8.10;;;21.90;71.10;;;;;;5005493;28;20205;-82
2021/03/30 12:58:39;;;;;;;8.10;7.43;;;22.00;72.30;;;;;;5017632;28;20229;-81
2021/03/30 13:01:05;;;;;;;8.00;7.40;;;22.10;71.00;;;;;;5011134;28;20208;-79